createdAt,value
2022-08-05T00:26:05.972Z,96
2022-08-05T00:36:15.399Z,96
2022-08-05T00:46:06.657Z,96
2022-08-05T01:06:11.137Z,97
2022-08-05T01:16:09.408Z,97
2022-08-05T01:36:12.739Z,98
2022-08-05T01:46:16.230Z,98
2022-08-05T01:56:12.052Z,98
2022-08-05T02:06:33.707Z,99
2022-08-05T02:16:16.536Z,98
2022-08-05T02:26:13.829Z,99
2022-08-05T02:36:15.499Z,100
2022-08-05T02:46:16.417Z,100
2022-08-05T03:06:53.461Z,100
2022-08-05T03:16:16.756Z,100
2022-08-05T03:26:30.722Z,100
2022-08-05T03:46:19.178Z,100
2022-08-05T03:56:28.003Z,100
2022-08-05T04:06:20.096Z,100
2022-08-05T04:16:24.437Z,100
2022-08-05T04:26:21.467Z,100
2022-08-05T04:36:38.708Z,100
2022-08-05T04:46:28.106Z,100
2022-08-05T04:56:34.156Z,100
2022-08-05T05:06:35.754Z,100
2022-08-05T05:16:24.055Z,100
2022-08-05T05:36:24.717Z,100
2022-08-05T05:56:32.152Z,100
2022-08-05T06:06:31.354Z,100
2022-08-05T06:16:32.638Z,100
2022-08-05T06:26:31.950Z,100
2022-08-05T06:36:29.629Z,100
2022-08-05T06:46:30.715Z,100
2022-08-05T06:56:33.923Z,100
2022-08-05T07:06:31.743Z,100
2022-08-05T07:16:39.470Z,100
2022-08-05T07:26:32.444Z,100
2022-08-05T07:36:33.078Z,100
2022-08-05T07:56:39.587Z,100
2022-08-05T08:06:34.762Z,99
2022-08-05T08:16:49.964Z,100
2022-08-05T08:26:35.953Z,100
2022-08-05T08:36:49.166Z,99
2022-08-05T08:46:37.199Z,99
2022-08-05T08:56:37.892Z,99
2022-08-05T09:06:38.238Z,99
2022-08-05T09:16:38.713Z,100
2022-08-05T09:26:38.937Z,99
2022-08-05T09:36:46.038Z,98
2022-08-05T09:56:41.293Z,98
2022-08-05T10:06:50.053Z,97
2022-08-05T10:16:52.311Z,97
2022-08-05T10:26:49.245Z,94
2022-08-05T10:36:43.275Z,91
2022-08-05T10:46:44.270Z,91
2022-08-05T10:56:44.842Z,85
2022-08-05T11:06:44.827Z,86
2022-08-05T11:16:47.564Z,87
2022-08-05T11:26:49.512Z,85
2022-08-05T11:36:47.055Z,81
2022-08-05T11:46:58.867Z,78
2022-08-05T11:56:50.227Z,79
2022-08-05T12:06:49.090Z,77
2022-08-05T12:16:49.673Z,79
2022-08-05T12:26:50.098Z,78
2022-08-05T12:46:51.411Z,77
2022-08-05T12:56:51.588Z,69
2022-08-05T13:06:52.611Z,70
2022-08-05T13:26:54.181Z,74
2022-08-05T13:36:54.847Z,74
2022-08-05T13:47:02.070Z,69
2022-08-05T13:56:56.196Z,68
2022-08-05T14:06:58.591Z,62
2022-08-05T14:27:16.015Z,46
2022-08-05T14:36:59.759Z,45
2022-08-05T14:57:00.494Z,47
2022-08-05T15:17:01.270Z,45
2022-08-05T15:37:05.040Z,42
2022-08-05T15:57:03.990Z,45
2022-08-05T16:07:05.082Z,47
2022-08-05T16:17:05.226Z,46
2022-08-05T16:38:00.456Z,47
2022-08-05T16:57:14.941Z,49
2022-08-05T17:07:11.296Z,51
2022-08-05T17:17:09.524Z,52
2022-08-05T17:27:09.786Z,52
2022-08-05T17:47:10.360Z,52
2022-08-05T18:07:12.445Z,55
2022-08-05T18:17:58.466Z,55
2022-08-05T18:27:18.713Z,57
2022-08-05T18:37:33.327Z,58
2022-08-05T18:47:14.185Z,59
2022-08-05T18:57:15.088Z,61
2022-08-05T19:07:14.942Z,62
2022-08-05T19:17:15.256Z,64
2022-08-05T19:27:15.457Z,65
2022-08-05T19:37:15.824Z,66
2022-08-05T19:47:16.223Z,67
2022-08-05T19:57:16.578Z,68
2022-08-05T20:07:38.840Z,69
2022-08-05T20:17:18.332Z,70
2022-08-05T20:27:18.595Z,71
2022-08-05T20:37:24.281Z,71
2022-08-05T20:47:19.829Z,72
2022-08-05T20:57:24.992Z,72
2022-08-05T21:07:21.544Z,72
2022-08-05T21:17:22.207Z,73
2022-08-05T21:27:24.871Z,74
2022-08-05T21:37:23.679Z,75
2022-08-05T21:47:33.011Z,75
2022-08-05T21:57:32.248Z,75
2022-08-05T22:07:39.579Z,76
2022-08-05T22:28:05.238Z,77
2022-08-05T22:37:31.381Z,78
2022-08-05T22:47:28.785Z,78
2022-08-05T22:57:34.004Z,79
2022-08-05T23:07:29.149Z,79
2022-08-05T23:17:32.588Z,80
2022-08-05T23:27:31.411Z,81
2022-08-05T23:37:34.351Z,82
2022-08-05T23:47:33.617Z,83
2022-08-05T23:57:31.150Z,84
